createdAt,value
2023-04-02T00:01:01.994Z,100837.09
2023-04-02T00:03:43.048Z,100851.94
2023-04-02T00:06:34.344Z,100849.25
2023-04-02T00:09:17.989Z,100847.50
2023-04-02T00:11:48.763Z,100864.94
2023-04-02T00:14:36.629Z,100861.38
2023-04-02T00:17:06.342Z,100871.03
2023-04-02T00:19:51.694Z,100872.75
2023-04-02T00:22:25.326Z,100873.63
2023-04-02T00:24:56.070Z,100874.47
2023-04-02T00:27:23.550Z,100883.16
2023-04-02T00:29:56.315Z,100883.16
2023-04-02T00:32:31.238Z,100887.50
2023-04-02T00:35:00.392Z,100898.84
2023-04-02T00:37:39.014Z,100892.72
2023-04-02T00:40:30.987Z,100899.63
2023-04-02T00:43:04.355Z,100905.72
2023-04-02T00:45:38.119Z,100909.22
2023-04-02T00:48:32.747Z,100917.13
2023-04-02T00:51:24.927Z,100915.38
2023-04-02T00:53:58.052Z,100922.34
2023-04-02T00:56:41.423Z,100919.69
2023-04-02T00:59:30.794Z,100929.25
2023-04-02T01:02:18.948Z,100937.88
2023-04-02T01:05:17.719Z,100951.78
2023-04-02T01:07:59.512Z,100951.75
2023-04-02T01:10:47.458Z,100958.69
2023-04-02T01:13:51.432Z,100955.09
2023-04-02T01:16:32.341Z,100963.84
2023-04-02T01:19:49.130Z,100961.22
2023-04-02T01:22:19.259Z,100963.00
2023-04-02T01:24:50.734Z,100972.72
2023-04-02T01:27:43.074Z,100970.84
2023-04-02T01:30:16.039Z,100976.06
2023-04-02T01:32:43.482Z,100975.16
2023-04-02T01:35:16.313Z,100976.03
2023-04-02T01:38:11.849Z,100982.94
2023-04-02T01:41:09.209Z,100994.28
2023-04-02T01:43:53.779Z,100998.63
2023-04-02T01:46:32.539Z,101004.72
2023-04-02T01:49:19.675Z,101002.91
2023-04-02T01:51:56.830Z,101011.59
2023-04-02T01:54:25.908Z,101014.19
2023-04-02T01:56:53.190Z,101014.19
2023-04-02T01:59:22.793Z,101020.22
2023-04-02T02:02:07.577Z,101027.19
2023-04-02T02:04:35.135Z,101031.53
2023-04-02T02:07:04.280Z,101044.56
2023-04-02T02:09:38.326Z,101048.00
2023-04-02T02:12:14.485Z,101049.72
2023-04-02T02:14:48.529Z,101047.13
2023-04-02T02:17:31.107Z,101057.59
2023-04-02T02:20:06.779Z,101061.91
2023-04-02T02:22:40.570Z,101061.94
2023-04-02T02:25:23.052Z,101066.25
2023-04-02T02:28:26.144Z,101069.75
2023-04-02T02:31:22.643Z,101081.88
2023-04-02T02:33:56.465Z,101085.31
2023-04-02T02:36:33.583Z,101092.28
2023-04-02T02:39:16.980Z,101097.50
2023-04-02T02:42:02.560Z,101100.97
2023-04-02T02:44:35.925Z,101105.38
2023-04-02T02:47:27.056Z,101108.84
2023-04-02T02:50:18.384Z,101111.44
2023-04-02T02:52:54.754Z,101121.06
2023-04-02T02:55:37.011Z,101130.63
2023-04-02T02:58:23.183Z,101128.81
2023-04-02T03:00:56.500Z,101136.63
2023-04-02T03:03:29.662Z,101140.97
2023-04-02T03:06:07.499Z,101145.31
2023-04-02T03:09:12.903Z,101154.91
2023-04-02T03:12:13.955Z,101149.66
2023-04-02T03:15:15.908Z,101154.81
2023-04-02T03:18:20.328Z,101172.28
2023-04-02T03:21:02.987Z,101185.31
2023-04-02T03:23:42.968Z,101177.38
2023-04-02T03:26:34.654Z,101192.84
2023-04-02T03:29:27.800Z,101197.16
2023-04-02T03:32:01.061Z,101203.25
2023-04-02T03:35:00.114Z,101206.75
2023-04-02T03:37:39.423Z,101222.44
2023-04-02T03:40:24.715Z,101224.13
2023-04-02T03:43:12.693Z,101226.63
2023-04-02T03:45:49.986Z,101228.28
2023-04-02T03:48:59.284Z,101242.25
2023-04-02T03:52:33.828Z,101251.72
2023-04-02T03:55:02.865Z,101250.78
2023-04-02T03:58:03.367Z,101262.09
2023-04-02T04:00:47.220Z,101260.28
2023-04-02T04:03:29.739Z,101264.53
2023-04-02T04:06:10.063Z,101262.00
2023-04-02T04:08:57.148Z,101275.88
2023-04-02T04:11:33.539Z,101280.13
2023-04-02T04:14:45.261Z,101287.97
2023-04-02T04:17:38.666Z,101300.13
2023-04-02T04:20:28.433Z,101304.47
2023-04-02T04:23:32.241Z,101300.25
2023-04-02T04:26:26.597Z,101308.09
2023-04-02T04:29:29.944Z,101319.53
2023-04-02T04:32:09.302Z,101325.63
2023-04-02T04:34:53.590Z,101333.59
2023-04-02T04:37:29.349Z,101338.81
2023-04-02T04:40:12.028Z,101344.09
2023-04-02T04:42:43.237Z,101350.19
2023-04-02T04:45:31.073Z,101361.38
2023-04-02T04:48:25.831Z,101356.84
2023-04-02T04:51:17.141Z,101369.78
2023-04-02T04:53:53.535Z,101367.16
2023-04-02T04:56:26.961Z,101373.09
2023-04-02T04:59:23.192Z,101378.28
2023-04-02T05:02:02.188Z,101387.75
2023-04-02T05:04:40.684Z,101393.00
2023-04-02T05:07:26.639Z,101399.91
2023-04-02T05:10:04.462Z,101404.22
2023-04-02T05:12:42.229Z,101407.66
2023-04-02T05:15:17.176Z,101419.75
2023-04-02T05:18:16.419Z,101426.50
2023-04-02T05:21:13.068Z,101428.16
2023-04-02T05:24:32.324Z,101429.03
2023-04-02T05:27:10.093Z,101428.19
2023-04-02T05:29:44.236Z,101440.31
2023-04-02T05:32:29.335Z,101452.47
2023-04-02T05:35:00.025Z,101448.88
2023-04-02T05:37:31.503Z,101454.97
2023-04-02T05:40:40.098Z,101461.09
2023-04-02T05:43:14.101Z,101475.84
2023-04-02T05:45:52.566Z,101467.03
2023-04-02T05:48:27.935Z,101473.97
2023-04-02T05:50:59.100Z,101485.22
2023-04-02T05:53:45.829Z,101487.84
2023-04-02T05:56:39.312Z,101490.56
2023-04-02T05:59:27.290Z,101492.41
2023-04-02T06:02:32.057Z,101499.50
2023-04-02T06:05:12.632Z,101505.63
2023-04-02T06:07:50.791Z,101511.72
2023-04-02T06:10:27.406Z,101516.16
2023-04-02T06:13:08.780Z,101527.41
2023-04-02T06:15:38.198Z,101521.22
2023-04-02T06:18:14.301Z,101523.91
2023-04-02T06:20:48.483Z,101536.16
2023-04-02T06:23:53.444Z,101543.19
2023-04-02T06:26:39.097Z,101552.72
2023-04-02T06:29:38.437Z,101560.56
2023-04-02T06:32:08.600Z,101567.56
2023-04-02T06:34:42.579Z,101571.25
2023-04-02T06:37:36.211Z,101580.84
2023-04-02T06:40:16.018Z,101577.31
2023-04-02T06:42:45.736Z,101589.59
2023-04-02T06:45:26.716Z,101601.84
2023-04-02T06:47:59.140Z,101594.91
2023-04-02T06:51:03.740Z,101608.06
2023-04-02T06:53:45.955Z,101606.41
2023-04-02T06:56:34.760Z,101611.75
2023-04-02T06:59:04.468Z,101618.75
2023-04-02T07:01:40.259Z,101631.75
2023-04-02T07:04:08.922Z,101630.09
2023-04-02T07:06:38.632Z,101647.59
2023-04-02T07:09:06.844Z,101643.16
2023-04-02T07:11:34.508Z,101651.78
2023-04-02T07:14:01.672Z,101664.84
2023-04-02T07:16:32.763Z,101670.94
2023-04-02T07:19:00.449Z,101673.69
2023-04-02T07:21:28.903Z,101666.88
2023-04-02T07:23:58.102Z,101679.31
2023-04-02T07:26:28.584Z,101689.00
2023-04-02T07:28:58.400Z,101683.91
2023-04-02T07:31:30.667Z,101698.72
2023-04-02T07:34:02.264Z,101708.09
2023-04-02T07:36:32.271Z,101708.94
2023-04-02T07:38:59.994Z,101706.41
2023-04-02T07:41:30.207Z,101725.59
2023-04-02T07:43:58.032Z,101720.28
2023-04-02T07:46:26.708Z,101717.81
2023-04-02T07:48:56.655Z,101731.88
2023-04-02T07:51:26.749Z,101723.91
2023-04-02T07:53:57.338Z,101724.75
2023-04-02T07:56:27.320Z,101736.13
2023-04-02T07:58:54.776Z,101739.78
2023-04-02T08:01:27.795Z,101744.16
2023-04-02T08:04:00.263Z,101751.16
2023-04-02T08:06:36.350Z,101756.44
2023-04-02T08:09:03.975Z,101767.22
2023-04-02T08:11:35.932Z,101765.00
2023-04-02T08:14:03.140Z,101764.50
2023-04-02T08:16:48.973Z,101770.09
2023-04-02T08:19:16.726Z,101778.94
2023-04-02T08:21:50.455Z,101778.97
2023-04-02T08:24:19.737Z,101791.22
2023-04-02T08:26:51.614Z,101784.53
2023-04-02T08:29:32.471Z,101792.03
2023-04-02T08:32:07.757Z,101796.75
2023-04-02T08:34:34.776Z,101795.25
2023-04-02T08:37:06.594Z,101812.78
2023-04-02T08:39:35.935Z,101819.91
2023-04-02T08:42:24.968Z,101817.50
2023-04-02T08:45:24.358Z,101837.78
2023-04-02T08:47:59.993Z,101839.63
2023-04-02T08:50:41.501Z,101845.84
2023-04-02T08:53:27.440Z,101848.44
2023-04-02T08:56:19.246Z,101849.44
2023-04-02T08:58:57.938Z,101861.78
2023-04-02T09:01:35.116Z,101865.41
2023-04-02T09:04:07.022Z,101866.53
2023-04-02T09:06:34.840Z,101878.31
2023-04-02T09:09:02.066Z,101877.13
2023-04-02T09:12:01.328Z,101888.22
2023-04-02T09:14:44.998Z,101888.50
2023-04-02T09:17:26.398Z,101899.06
2023-04-02T09:20:01.068Z,101904.38
2023-04-02T09:22:31.793Z,101905.16
2023-04-02T09:25:11.489Z,101906.16
2023-04-02T09:27:38.762Z,101915.66
2023-04-02T09:30:41.683Z,101932.81
2023-04-02T09:33:09.563Z,101931.69
2023-04-02T09:35:58.004Z,101938.78
2023-04-02T09:38:32.889Z,101936.25
2023-04-02T09:41:18.713Z,101933.84
2023-04-02T09:43:45.936Z,101945.50
2023-04-02T09:46:26.163Z,101949.19
2023-04-02T09:49:01.475Z,101943.28
2023-04-02T09:51:35.225Z,101957.63
2023-04-02T09:54:10.530Z,101963.00
2023-04-02T09:56:41.156Z,101968.41
2023-04-02T09:59:21.804Z,101977.22
2023-04-02T10:01:55.925Z,101990.50
2023-04-02T10:04:44.947Z,101994.75
2023-04-02T10:07:37.864Z,101994.47
2023-04-02T10:10:38.329Z,101991.50
2023-04-02T10:13:10.031Z,101995.91
2023-04-02T10:16:09.579Z,102003.06
2023-04-02T10:18:52.475Z,101998.81
2023-04-02T10:21:38.320Z,102014.66
2023-04-02T10:24:17.193Z,102008.50
2023-04-02T10:27:06.852Z,102019.91
2023-04-02T10:29:47.311Z,102029.53
2023-04-02T10:32:51.238Z,102034.56
2023-04-02T10:36:02.052Z,102037.72
2023-04-02T10:38:42.538Z,102044.50
2023-04-02T10:41:39.379Z,102043.50
2023-04-02T10:44:28.258Z,102048.78
2023-04-02T10:47:07.477Z,102065.44
2023-04-02T10:49:55.779Z,102061.81
2023-04-02T10:52:36.224Z,102055.41
2023-04-02T10:55:16.663Z,102053.63
2023-04-02T10:57:45.733Z,102064.34
2023-04-02T11:00:18.660Z,102068.88
2023-04-02T11:03:13.779Z,102069.53
2023-04-02T11:05:52.849Z,102074.56
2023-04-02T11:08:46.883Z,102088.31
2023-04-02T11:11:21.656Z,102087.28
2023-04-02T11:14:17.483Z,102100.44
2023-04-02T11:16:45.180Z,102094.25
2023-04-02T11:19:17.298Z,102103.91
2023-04-02T11:22:06.548Z,102111.94
2023-04-02T11:24:45.566Z,102113.78
2023-04-02T11:27:14.494Z,102113.09
2023-04-02T11:30:27.321Z,102122.19
2023-04-02T11:32:56.408Z,102116.31
2023-04-02T11:35:33.707Z,102122.19
2023-04-02T11:38:19.120Z,102130.53
2023-04-02T11:40:58.411Z,102127.16
2023-04-02T11:43:34.686Z,102122.13
2023-04-02T11:46:37.106Z,102129.41
2023-04-02T11:49:40.875Z,102133.94
2023-04-02T11:52:26.712Z,102136.75
2023-04-02T11:55:24.228Z,102148.03
2023-04-02T11:58:02.407Z,102146.16
2023-04-02T12:01:18.514Z,102146.97
2023-04-02T12:03:45.557Z,102157.34
2023-04-02T12:06:54.932Z,102164.34
2023-04-02T12:09:30.375Z,102167.94
2023-04-02T12:12:01.097Z,102169.56
2023-04-02T12:14:36.878Z,102176.59
2023-04-02T12:17:32.939Z,102176.38
2023-04-02T12:20:10.086Z,102180.63
2023-04-02T12:22:48.239Z,102186.97
2023-04-02T12:25:40.282Z,102186.47
2023-04-02T12:28:10.245Z,102195.28
2023-04-02T12:30:38.862Z,102193.53
2023-04-02T12:33:28.733Z,102197.28
2023-04-02T12:36:02.005Z,102199.28
2023-04-02T12:38:33.813Z,102197.72
2023-04-02T12:41:05.875Z,102210.06
2023-04-02T12:43:37.850Z,102209.97
2023-04-02T12:46:07.866Z,102213.41
2023-04-02T12:48:36.427Z,102228.09
2023-04-02T12:51:05.248Z,102230.50
2023-04-02T12:53:41.254Z,102230.31
2023-04-02T12:56:18.484Z,102225.09
2023-04-02T12:58:55.830Z,102224.44
2023-04-02T13:01:28.325Z,102229.88
2023-04-02T13:04:12.455Z,102233.66
2023-04-02T13:06:58.471Z,102228.59
2023-04-02T13:09:50.600Z,102237.59
2023-04-02T13:12:37.330Z,102249.19
2023-04-02T13:15:31.783Z,102245.56
2023-04-02T13:18:21.102Z,102265.44
2023-04-02T13:21:05.480Z,102259.19
2023-04-02T13:23:36.967Z,102262.72
2023-04-02T13:26:25.842Z,102259.31
2023-04-02T13:29:23.759Z,102264.72
2023-04-02T13:31:53.317Z,102267.31
2023-04-02T13:34:21.001Z,102257.25
2023-04-02T13:36:48.478Z,102263.59
2023-04-02T13:39:15.791Z,102243.94
2023-04-02T13:41:58.441Z,102264.91
2023-04-02T13:44:32.058Z,102255.81
2023-04-02T13:46:59.964Z,102268.06
2023-04-02T13:49:28.116Z,102264.69
2023-04-02T13:51:59.223Z,102268.59
2023-04-02T13:54:41.103Z,102275.16
2023-04-02T13:57:08.469Z,102273.50
2023-04-02T13:59:36.139Z,102274.41
2023-04-02T14:02:18.940Z,102289.75
2023-04-02T14:04:52.874Z,102292.59
2023-04-02T14:07:24.965Z,102298.97
2023-04-02T14:10:19.477Z,102293.63
2023-04-02T14:13:09.121Z,102288.53
2023-04-02T14:15:58.210Z,102277.06
2023-04-02T14:18:52.733Z,102268.84
2023-04-02T14:21:50.893Z,102282.59
2023-04-02T14:24:46.483Z,102289.69
2023-04-02T14:27:32.217Z,102290.22
2023-04-02T14:30:41.706Z,102295.47
2023-04-02T14:33:32.554Z,102299.81
2023-04-02T14:36:19.026Z,102296.44
2023-04-02T14:39:18.214Z,102294.06
2023-04-02T14:42:20.563Z,102296.81
2023-04-02T14:45:23.780Z,102300.88
2023-04-02T14:47:58.485Z,102301.66
2023-04-02T14:50:38.271Z,102308.34
2023-04-02T14:53:24.199Z,102313.75
2023-04-02T14:55:52.832Z,102311.34
2023-04-02T14:58:28.790Z,102306.53
2023-04-02T15:01:09.722Z,102313.88
2023-04-02T15:03:56.806Z,102324.16
2023-04-02T15:06:42.915Z,102328.88
2023-04-02T15:09:33.986Z,102332.13
2023-04-02T15:12:12.634Z,102321.88
2023-04-02T15:14:46.891Z,102328.97
2023-04-02T15:17:14.314Z,102333.44
2023-04-02T15:19:41.424Z,102331.56
2023-04-02T15:22:36.198Z,102329.38
2023-04-02T15:25:09.015Z,102320.16
2023-04-02T15:28:09.661Z,102317.94
2023-04-02T15:30:42.551Z,102326.53
2023-04-02T15:33:28.443Z,102335.28
2023-04-02T15:36:12.330Z,102322.94
2023-04-02T15:38:49.845Z,102324.66
2023-04-02T15:41:26.256Z,102333.44
2023-04-02T15:44:22.839Z,102338.59
2023-04-02T15:46:59.883Z,102338.34
2023-04-02T15:50:01.962Z,102330.25
2023-04-02T15:52:48.856Z,102335.69
2023-04-02T15:55:38.595Z,102326.50
2023-04-02T15:58:53.569Z,102335.97
2023-04-02T16:01:56.400Z,102333.06
2023-04-02T16:04:43.193Z,102337.00
2023-04-02T16:07:52.814Z,102342.41
2023-04-02T16:10:40.181Z,102350.13
2023-04-02T16:13:38.062Z,102350.09
2023-04-02T16:16:26.854Z,102356.47
2023-04-02T16:19:16.113Z,102354.13
2023-04-02T16:21:59.136Z,102364.56
2023-04-02T16:24:26.240Z,102367.28
2023-04-02T16:27:35.131Z,102371.22
2023-04-02T16:30:39.067Z,102375.22
2023-04-02T16:33:28.280Z,102374.44
2023-04-02T16:36:11.168Z,102371.22
2023-04-02T16:39:03.449Z,102384.56
2023-04-02T16:41:49.454Z,102393.63
2023-04-02T16:44:57.119Z,102391.31
2023-04-02T16:48:04.235Z,102389.09
2023-04-02T16:50:48.689Z,102394.81
2023-04-02T16:53:22.317Z,102402.97
2023-04-02T16:56:16.832Z,102405.00
2023-04-02T16:59:19.020Z,102412.44
2023-04-02T17:02:18.516Z,102407.34
2023-04-02T17:05:18.833Z,102410.22
2023-04-02T17:08:04.525Z,102426.22
2023-04-02T17:11:09.076Z,102429.81
2023-04-02T17:13:53.153Z,102430.78
2023-04-02T17:16:47.094Z,102441.44
2023-04-02T17:19:16.967Z,102435.19
2023-04-02T17:21:49.029Z,102442.66
2023-04-02T17:24:30.123Z,102449.06
2023-04-02T17:27:17.175Z,102463.56
2023-04-02T17:29:49.362Z,102460.09
2023-04-02T17:32:28.139Z,102458.28
2023-04-02T17:35:20.069Z,102457.47
2023-04-02T17:37:55.559Z,102461.19
2023-04-02T17:40:43.214Z,102467.63
2023-04-02T17:43:46.160Z,102477.41
2023-04-02T17:46:34.678Z,102476.72
2023-04-02T17:49:42.826Z,102478.88
2023-04-02T17:52:25.084Z,102479.31
2023-04-02T17:55:40.599Z,102486.00
2023-04-02T17:58:42.666Z,102487.38
2023-04-02T18:01:38.769Z,102495.75
2023-04-02T18:05:01.041Z,102490.84
2023-04-02T18:07:58.085Z,102497.56
2023-04-02T18:10:49.094Z,102505.16
2023-04-02T18:13:42.007Z,102509.38
2023-04-02T18:16:42.654Z,102512.72
2023-04-02T18:19:38.981Z,102512.47
2023-04-02T18:22:31.150Z,102515.78
2023-04-02T18:25:24.856Z,102522.50
2023-04-02T18:28:34.130Z,102524.78
2023-04-02T18:31:19.634Z,102527.78
2023-04-02T18:34:37.567Z,102533.41
2023-04-02T18:37:38.512Z,102543.50
2023-04-02T18:40:39.102Z,102544.97
2023-04-02T18:43:43.016Z,102558.53
2023-04-02T18:46:54.457Z,102556.41
2023-04-02T18:49:39.391Z,102557.88
2023-04-02T18:52:17.701Z,102569.84
2023-04-02T18:54:52.710Z,102570.53
2023-04-02T18:57:30.526Z,102581.69
2023-04-02T19:00:22.607Z,102587.53
2023-04-02T19:03:00.589Z,102582.94
2023-04-02T19:05:45.847Z,102586.25
2023-04-02T19:08:48.316Z,102596.47
2023-04-02T19:11:29.756Z,102601.47
2023-04-02T19:14:21.438Z,102604.63
2023-04-02T19:17:15.165Z,102610.38
2023-04-02T19:19:48.220Z,102617.16
2023-04-02T19:23:04.083Z,102611.72
2023-04-02T19:26:16.434Z,102607.13
2023-04-02T19:29:14.193Z,102605.91
2023-04-02T19:32:02.565Z,102619.69
2023-04-02T19:34:51.893Z,102618.53
2023-04-02T19:37:42.998Z,102613.84
2023-04-02T19:40:27.012Z,102617.09
2023-04-02T19:42:54.911Z,102622.16
2023-04-02T19:45:38.858Z,102614.03
2023-04-02T19:48:30.848Z,102616.38
2023-04-02T19:50:57.995Z,102620.50
2023-04-02T19:53:25.125Z,102621.13
2023-04-02T19:55:52.391Z,102622.63
2023-04-02T19:58:35.445Z,102622.44
2023-04-02T20:01:03.530Z,102623.06
2023-04-02T20:03:31.491Z,102625.41
2023-04-02T20:05:59.912Z,102621.69
2023-04-02T20:08:28.096Z,102624.03
2023-04-02T20:10:56.152Z,102626.38
2023-04-02T20:13:23.361Z,102626.13
2023-04-02T20:15:51.523Z,102629.34
2023-04-02T20:18:20.391Z,102628.22
2023-04-02T20:20:48.774Z,102629.69
2023-04-02T20:23:16.891Z,102633.78
2023-04-02T20:25:52.802Z,102636.81
2023-04-02T20:28:21.920Z,102642.63
2023-04-02T20:30:50.723Z,102644.81
2023-04-02T20:33:20.082Z,102654.84
2023-04-02T20:35:49.878Z,102654.31
2023-04-02T20:38:18.321Z,102647.97
2023-04-02T20:40:52.086Z,102652.06
2023-04-02T20:43:19.067Z,102656.03
2023-04-02T20:46:01.364Z,102653.13
2023-04-02T20:48:30.959Z,102658.03
2023-04-02T20:51:02.868Z,102658.63
2023-04-02T20:53:32.411Z,102660.19
2023-04-02T20:56:11.830Z,102660.69
2023-04-02T20:58:41.138Z,102660.34
2023-04-02T21:01:29.690Z,102667.97
2023-04-02T21:04:00.607Z,102665.09
2023-04-02T21:06:35.062Z,102665.72
2023-04-02T21:09:08.207Z,102672.41
2023-04-02T21:11:36.573Z,102675.50
2023-04-02T21:14:04.465Z,102671.78
2023-04-02T21:16:32.423Z,102671.53
2023-04-02T21:19:07.278Z,102678.31
2023-04-02T21:21:36.373Z,102685.06
2023-04-02T21:24:06.616Z,102685.72
2023-04-02T21:26:37.986Z,102687.25
2023-04-02T21:29:06.032Z,102687.84
2023-04-02T21:31:39.036Z,102693.63
2023-04-02T21:34:08.576Z,102705.63
2023-04-02T21:36:40.277Z,102705.41
2023-04-02T21:39:11.553Z,102704.28
2023-04-02T21:41:46.582Z,102704.03
2023-04-02T21:44:15.821Z,102706.47
2023-04-02T21:46:44.244Z,102697.56
2023-04-02T21:49:15.184Z,102706.06
2023-04-02T21:51:45.614Z,102703.25
2023-04-02T21:54:13.899Z,102704.75
2023-04-02T21:56:43.985Z,102711.47
2023-04-02T21:59:14.370Z,102709.53
2023-04-02T22:01:51.320Z,102711.84
2023-04-02T22:04:26.082Z,102706.41
2023-04-02T22:06:54.069Z,102713.25
2023-04-02T22:09:24.891Z,102706.94
2023-04-02T22:11:56.212Z,102711.19
2023-04-02T22:14:23.436Z,102712.81
2023-04-02T22:16:50.966Z,102709.94
2023-04-02T22:19:21.543Z,102714.16
2023-04-02T22:21:48.967Z,102716.59
2023-04-02T22:24:19.025Z,102712.91
2023-04-02T22:26:46.818Z,102719.75
2023-04-02T22:29:14.673Z,102718.66
2023-04-02T22:31:42.460Z,102717.69
2023-04-02T22:34:09.889Z,102728.03
2023-04-02T22:36:37.178Z,102726.97
2023-04-02T22:39:07.071Z,102728.63
2023-04-02T22:41:34.537Z,102730.09
2023-04-02T22:44:02.876Z,102721.31
2023-04-02T22:46:31.220Z,102732.41
2023-04-02T22:48:58.682Z,102722.66
2023-04-02T22:51:28.146Z,102729.56
2023-04-02T22:53:56.615Z,102729.38
2023-04-02T22:56:29.728Z,102728.38
2023-04-02T22:58:57.066Z,102741.25
2023-04-02T23:01:34.676Z,102740.34
2023-04-02T23:04:02.225Z,102748.75
2023-04-02T23:06:29.639Z,102741.69
2023-04-02T23:08:56.725Z,102747.63
2023-04-02T23:11:27.711Z,102748.31
2023-04-02T23:13:57.510Z,102744.63
2023-04-02T23:16:27.712Z,102750.66
2023-04-02T23:18:56.153Z,102748.66
2023-04-02T23:21:23.937Z,102745.06
2023-04-02T23:23:51.452Z,102738.81
2023-04-02T23:26:31.498Z,102743.88
2023-04-02T23:29:00.605Z,102743.72
2023-04-02T23:31:28.596Z,102747.84
2023-04-02T23:33:55.958Z,102748.53
2023-04-02T23:36:32.358Z,102754.47
2023-04-02T23:39:09.422Z,102748.19
2023-04-02T23:41:39.914Z,102759.28
2023-04-02T23:44:08.204Z,102746.91
2023-04-02T23:46:36.490Z,102756.34
2023-04-02T23:49:04.201Z,102750.09
2023-04-02T23:51:34.512Z,102758.63
2023-04-02T23:54:01.551Z,102761.97
2023-04-02T23:56:28.635Z,102759.16
2023-04-02T23:58:56.051Z,102759.69
